Time;durP1;ratioP1;P1;durP2;ratioP2;P2;SDS_P1;SDS_P2;PMS_P1;PMS_P2;Temp;Humidity;BMP_temperature;BMP_pressure;BME280_temperature;BME280_humidity;BME280_pressure;Samples;Min_cycle;Max_cycle;Signal;HPM_P1;HPM_P2
2022/06/29 00:00:26;;;;;;;14.13;13.10;;;19.90;54.70;;;;;;5002766;28;20406;-77
2022/06/29 00:02:52;;;;;;;14.10;13.18;;;19.80;54.70;;;;;;5019712;28;20040;-77
2022/06/29 00:05:21;;;;;;;13.48;12.48;;;19.80;54.60;;;;;;5001390;28;20037;-77
2022/06/29 00:07:47;;;;;;;13.25;12.35;;;19.80;54.60;;;;;;5036905;28;20046;-77
2022/06/29 00:10:13;;;;;;;14.13;12.90;;;19.70;54.80;;;;;;5037511;28;20041;-77
2022/06/29 00:12:40;;;;;;;14.43;13.40;;;19.70;54.90;;;;;;5033760;28;20041;-77
2022/06/29 00:15:06;;;;;;;15.20;14.15;;;19.60;55.00;;;;;;5031829;28;20036;-77
2022/06/29 00:17:32;;;;;;;15.30;14.13;;;19.60;55.20;;;;;;5033016;28;20049;-77
2022/06/29 00:19:59;;;;;;;15.00;14.10;;;19.50;55.30;;;;;;5037241;28;20025;-77
2022/06/29 00:22:26;;;;;;;16.10;14.82;;;19.50;55.50;;;;;;5036986;28;20029;-76
2022/06/29 00:24:52;;;;;;;15.65;14.75;;;19.40;55.60;;;;;;5033592;28;20026;-77
2022/06/29 00:27:18;;;;;;;16.58;15.38;;;19.40;55.70;;;;;;5037385;28;20021;-76
2022/06/29 00:29:44;;;;;;;17.02;15.95;;;19.30;56.00;;;;;;5032873;28;20053;-77
2022/06/29 00:32:10;;;;;;;16.15;15.15;;;19.30;56.20;;;;;;5036199;28;20025;-77
2022/06/29 00:34:37;;;;;;;17.60;16.30;;;19.30;56.30;;;;;;5037189;28;20041;-76
2022/06/29 00:37:03;;;;;;;17.08;15.57;;;19.30;56.30;;;;;;5036823;28;20052;-77
2022/06/29 00:39:29;;;;;;;16.95;15.90;;;19.30;56.20;;;;;;5016292;28;20037;-77
2022/06/29 00:41:55;;;;;;;17.30;16.27;;;19.30;56.40;;;;;;5033710;28;20042;-76
2022/06/29 00:44:22;;;;;;;17.40;16.10;;;19.20;56.50;;;;;;5034474;28;20036;-77
2022/06/29 00:46:53;;;;;;;18.17;16.95;;;19.10;56.80;;;;;;5035970;28;20041;-77
2022/06/29 00:49:19;;;;;;;;;;;19.10;56.90;;;;;;5037472;28;20486;-76
2022/06/29 00:51:48;;;;;;;18.20;17.15;;;19.10;57.00;;;;;;5049058;28;20378;-77
2022/06/29 00:54:23;;;;;;;20.13;18.98;;;19.10;57.00;;;;;;5015995;28;20037;-76
2022/06/29 00:56:49;;;;;;;21.35;20.15;;;19.00;57.30;;;;;;5016668;28;20040;-77
2022/06/29 00:59:20;;;;;;;21.35;19.88;;;18.90;57.20;;;;;;5034389;28;20021;-76
2022/06/29 01:01:46;;;;;;;21.52;20.23;;;19.00;57.30;;;;;;5035397;28;20041;-77
2022/06/29 01:04:12;;;;;;;22.23;20.63;;;18.90;57.50;;;;;;5016369;28;20503;-76
2022/06/29 01:06:38;;;;;;;23.45;22.02;;;18.90;57.60;;;;;;5015264;28;20037;-76
2022/06/29 01:09:05;;;;;;;21.40;20.10;;;18.80;57.60;;;;;;5014539;28;20048;-76
2022/06/29 01:11:31;;;;;;;20.17;18.85;;;18.80;57.90;;;;;;5032501;28;20038;-77
2022/06/29 01:13:58;;;;;;;17.10;15.75;;;18.70;58.20;;;;;;5037514;28;20037;-76
2022/06/29 01:16:24;;;;;;;16.60;15.40;;;18.70;58.20;;;;;;5032132;28;20053;-76
2022/06/29 01:18:50;;;;;;;16.35;15.20;;;18.70;58.00;;;;;;5015964;28;20030;-77
2022/06/29 01:21:20;;;;;;;15.00;14.10;;;18.60;58.20;;;;;;5034112;28;20060;-77
2022/06/29 01:23:47;;;;;;;16.77;15.68;;;18.60;58.40;;;;;;5015537;28;20025;-77
2022/06/29 01:26:13;;;;;;;16.55;15.40;;;18.60;58.90;;;;;;5019256;28;20064;-76
2022/06/29 01:28:43;;;;;;;18.92;17.63;;;18.60;58.30;;;;;;5036302;28;20031;-77
2022/06/29 01:31:16;;;;;;;22.85;21.48;;;18.60;58.30;;;;;;5031723;28;20046;-77
2022/06/29 01:33:43;;;;;;;20.67;19.38;;;18.70;58.30;;;;;;5031607;28;20025;-77
2022/06/29 01:36:09;;;;;;;19.50;18.40;;;18.70;58.40;;;;;;5033817;28;20387;-76
2022/06/29 01:38:36;;;;;;;16.73;15.68;;;18.70;58.30;;;;;;5032771;28;20033;-76
2022/06/29 01:41:04;;;;;;;14.50;13.50;;;18.70;58.30;;;;;;5045686;28;20406;-76
2022/06/29 01:43:31;;;;;;;15.10;14.20;;;18.60;58.60;;;;;;5035872;28;20026;-77
2022/06/29 01:45:58;;;;;;;16.13;14.60;;;18.60;58.70;;;;;;5035522;28;20025;-77
2022/06/29 01:48:24;;;;;;;14.18;13.20;;;18.50;58.70;;;;;;5001319;28;20040;-77
2022/06/29 01:50:50;;;;;;;14.30;13.30;;;18.50;58.80;;;;;;5030436;28;20057;-77
2022/06/29 01:53:16;;;;;;;15.90;14.50;;;18.50;58.70;;;;;;5034216;28;20025;-76
2022/06/29 01:55:46;;;;;;;15.43;14.40;;;18.50;58.70;;;;;;5034810;28;20033;-76
2022/06/29 01:58:12;;;;;;;17.27;15.95;;;18.50;58.70;;;;;;5031870;28;20033;-77
2022/06/29 02:00:39;;;;;;;17.58;16.27;;;18.50;58.90;;;;;;5031430;28;20026;-76
2022/06/29 02:03:05;;;;;;;19.60;18.30;;;18.50;58.80;;;;;;5013176;28;20045;-76
2022/06/29 02:05:31;;;;;;;17.73;16.52;;;18.50;58.90;;;;;;5031345;28;20018;-76
2022/06/29 02:07:57;;;;;;;17.20;16.10;;;18.50;58.70;;;;;;5034522;28;20400;-76
2022/06/29 02:10:23;;;;;;;18.88;17.40;;;18.50;58.80;;;;;;5035448;28;20041;-76
2022/06/29 02:12:49;;;;;;;21.25;19.63;;;18.50;58.90;;;;;;5035208;28;20548;-76
2022/06/29 02:15:15;;;;;;;17.80;16.60;;;18.50;59.00;;;;;;5030883;28;20387;-77
2022/06/29 02:17:42;;;;;;;16.50;15.35;;;18.50;58.80;;;;;;5030610;28;20029;-76
2022/06/29 02:20:08;;;;;;;16.20;14.85;;;18.50;58.90;;;;;;5034483;28;20037;-76
2022/06/29 02:22:34;;;;;;;18.38;17.02;;;18.40;59.10;;;;;;5035277;28;20044;-77
2022/06/29 02:25:01;;;;;;;15.93;14.95;;;18.40;59.30;;;;;;5014743;28;20093;-77
2022/06/29 02:27:27;;;;;;;16.23;15.10;;;18.40;59.20;;;;;;5034985;28;20029;-77
2022/06/29 02:29:53;;;;;;;16.23;15.05;;;18.50;59.30;;;;;;5031802;28;20030;-76
2022/06/29 02:35:04;;;;;;;14.68;13.52;;;18.30;60.00;;;;;;5034985;28;20068;-76
2022/06/29 02:37:30;;;;;;;14.70;13.70;;;18.30;59.80;;;;;;5034737;28;20044;-76
2022/06/29 02:39:56;;;;;;;15.20;14.20;;;18.30;59.70;;;;;;5031316;28;20025;-77
2022/06/29 02:42:22;;;;;;;15.63;14.32;;;18.30;60.00;;;;;;5034670;28;20047;-76
2022/06/29 02:44:48;;;;;;;14.40;13.30;;;18.30;59.70;;;;;;5028465;28;20022;-76
2022/06/29 02:47:16;;;;;;;13.93;12.90;;;18.30;59.70;;;;;;5016624;28;20033;-77
2022/06/29 02:49:42;;;;;;;14.27;13.18;;;18.30;59.70;;;;;;5035138;28;20034;-76
2022/06/29 02:52:08;;;;;;;13.65;12.75;;;18.30;59.80;;;;;;5014397;28;20503;-76
2022/06/29 02:54:34;;;;;;;13.02;12.10;;;18.30;59.70;;;;;;5030904;28;20040;-76
2022/06/29 02:57:01;;;;;;;13.52;12.52;;;18.20;59.80;;;;;;5028215;28;20052;-76
2022/06/29 02:59:27;;;;;;;12.93;12.10;;;18.20;59.90;;;;;;5032612;28;20468;-76
2022/06/29 03:01:53;;;;;;;13.30;12.23;;;18.10;60.00;;;;;;5032590;28;20041;-76
2022/06/29 03:04:19;;;;;;;13.57;12.43;;;18.20;60.20;;;;;;5030402;28;20030;-76
2022/06/29 03:06:45;;;;;;;12.43;11.65;;;18.10;60.00;;;;;;5034245;28;20041;-77
2022/06/29 03:09:11;;;;;;;12.55;11.70;;;18.10;60.30;;;;;;5029870;28;20039;-76
2022/06/29 03:11:38;;;;;;;13.45;12.25;;;18.10;60.20;;;;;;5028329;28;20053;-76
2022/06/29 03:14:04;;;;;;;13.00;11.98;;;18.20;60.40;;;;;;5035410;28;20029;-76
2022/06/29 03:16:30;;;;;;;12.75;11.75;;;18.20;60.40;;;;;;5033605;28;20034;-76
2022/06/29 03:18:56;;;;;;;12.80;11.98;;;18.20;60.60;;;;;;5030595;28;20029;-76
2022/06/29 03:21:22;;;;;;;15.38;12.77;;;18.10;60.50;;;;;;5012902;28;20041;-77
2022/06/29 03:23:48;;;;;;;13.30;12.10;;;18.10;60.60;;;;;;5011427;28;20044;-76
2022/06/29 03:26:14;;;;;;;13.50;12.60;;;18.10;60.70;;;;;;5034762;28;20029;-77
2022/06/29 03:28:40;;;;;;;13.40;12.40;;;18.10;60.50;;;;;;5032877;28;20044;-76
2022/06/29 03:31:06;;;;;;;13.85;12.85;;;18.00;60.80;;;;;;5029492;28;20053;-76
2022/06/29 03:33:32;;;;;;;13.77;13.00;;;18.00;60.80;;;;;;5034282;28;20426;-76
2022/06/29 03:35:58;;;;;;;14.32;13.43;;;18.00;60.70;;;;;;5027786;28;20026;-76
2022/06/29 03:38:24;;;;;;;13.45;12.65;;;18.00;61.20;;;;;;5014932;28;20038;-77
2022/06/29 03:40:51;;;;;;;14.07;12.98;;;18.00;61.10;;;;;;5013393;28;20038;-77
2022/06/29 03:43:17;;;;;;;13.60;12.43;;;18.00;61.20;;;;;;5010101;28;20416;-76
2022/06/29 03:45:43;;;;;;;13.68;12.75;;;18.00;61.40;;;;;;5031990;28;20480;-77
2022/06/29 03:48:09;;;;;;;13.52;12.73;;;18.00;61.30;;;;;;5028389;28;20033;-76
2022/06/29 03:50:36;;;;;;;13.43;12.50;;;18.00;61.90;;;;;;5029615;28;20049;-76
2022/06/29 03:53:02;;;;;;;12.82;12.00;;;18.00;61.70;;;;;;5035015;28;20033;-76
2022/06/29 03:55:28;;;;;;;13.40;12.32;;;17.90;61.90;;;;;;5030152;28;20033;-76
2022/06/29 03:57:54;;;;;;;12.98;12.00;;;18.00;62.20;;;;;;5034108;28;20482;-76
2022/06/29 04:00:20;;;;;;;12.80;11.52;;;17.90;62.60;;;;;;5033036;28;20025;-77
2022/06/29 04:02:46;;;;;;;12.65;11.75;;;17.90;62.80;;;;;;5029091;28;20037;-76
2022/06/29 04:05:12;;;;;;;11.95;11.05;;;17.90;62.40;;;;;;5033553;28;20040;-77
2022/06/29 04:07:38;;;;;;;12.40;11.45;;;17.80;62.80;;;;;;5033563;28;20496;-76
2022/06/29 04:10:05;;;;;;;12.30;11.25;;;17.90;62.30;;;;;;5033738;28;20036;-76
2022/06/29 04:12:33;;;;;;;12.20;11.07;;;17.80;63.20;;;;;;5029972;28;20041;-76
2022/06/29 04:14:59;;;;;;;11.88;11.05;;;17.60;63.80;;;;;;5027292;28;20029;-76
2022/06/29 04:17:26;;;;;;;11.80;10.70;;;17.30;64.60;;;;;;5030400;28;20034;-76
2022/06/29 04:19:52;;;;;;;12.73;11.95;;;17.20;65.90;;;;;;5033419;28;20483;-77
2022/06/29 04:22:19;;;;;;;13.00;12.10;;;17.00;66.20;;;;;;5033613;28;20048;-76
2022/06/29 04:24:45;;;;;;;13.52;12.60;;;17.10;65.90;;;;;;5032052;28;20472;-77
2022/06/29 04:27:11;;;;;;;14.98;12.77;;;17.10;65.30;;;;;;5029170;28;20033;-76
2022/06/29 04:29:38;;;;;;;13.25;12.38;;;17.20;64.70;;;;;;5030104;28;20391;-76
2022/06/29 04:32:04;;;;;;;14.23;13.13;;;17.30;64.30;;;;;;5032803;28;20053;-76
2022/06/29 04:34:30;;;;;;;13.65;12.63;;;17.40;63.90;;;;;;5030962;28;20038;-76
2022/06/29 04:36:56;;;;;;;13.23;12.23;;;17.30;64.60;;;;;;5035946;28;20053;-76
2022/06/29 04:39:22;;;;;;;13.20;12.20;;;17.30;64.90;;;;;;5037296;28;20464;-76
2022/06/29 04:41:48;;;;;;;13.02;12.02;;;17.30;64.60;;;;;;5033215;28;20021;-76
2022/06/29 04:44:15;;;;;;;13.50;12.60;;;17.40;64.50;;;;;;5036036;28;20033;-76
2022/06/29 04:46:41;;;;;;;12.43;11.63;;;17.40;64.30;;;;;;5033018;28;20041;-76
2022/06/29 04:49:07;;;;;;;12.55;11.63;;;17.50;64.40;;;;;;5016868;28;20029;-76
2022/06/29 04:51:33;;;;;;;13.05;12.10;;;17.50;64.40;;;;;;5036704;28;20040;-76
2022/06/29 04:53:59;;;;;;;12.95;12.05;;;17.50;64.20;;;;;;5034411;28;20029;-76
2022/06/29 04:56:30;;;;;;;12.60;11.85;;;17.40;64.30;;;;;;5033594;28;20029;-76
2022/06/29 04:58:57;;;;;;;13.40;12.43;;;17.50;64.10;;;;;;5035954;28;20030;-76
2022/06/29 05:01:24;;;;;;;13.32;12.43;;;17.50;64.40;;;;;;5032210;28;20033;-76
2022/06/29 05:03:50;;;;;;;13.73;12.82;;;17.40;64.90;;;;;;5018845;28;20042;-76
2022/06/29 05:06:17;;;;;;;13.10;12.00;;;17.50;65.40;;;;;;5016137;28;20021;-76
2022/06/29 05:08:43;;;;;;;15.20;14.05;;;17.60;65.50;;;;;;5014538;28;20037;-76
2022/06/29 05:11:09;;;;;;;18.05;16.77;;;17.80;65.10;;;;;;5036946;28;20460;-76
2022/06/29 05:13:35;;;;;;;18.98;17.30;;;18.00;64.60;;;;;;5032568;28;20041;-76
2022/06/29 05:16:01;;;;;;;17.65;16.48;;;18.10;64.10;;;;;;5036287;28;20041;-76
2022/06/29 05:18:28;;;;;;;19.02;17.73;;;18.40;64.00;;;;;;5016442;28;20471;-76
2022/06/29 05:20:54;;;;;;;22.48;21.10;;;18.70;63.10;;;;;;5032453;28;20403;-76
2022/06/29 05:23:20;;;;;;;25.02;23.65;;;18.90;62.60;;;;;;5034087;28;20044;-76
2022/06/29 05:25:46;;;;;;;24.25;22.95;;;19.10;61.50;;;;;;5035205;28;20041;-76
2022/06/29 05:28:13;;;;;;;25.50;24.00;;;19.20;61.10;;;;;;5016020;28;20045;-76
2022/06/29 05:30:39;;;;;;;28.60;27.00;;;19.40;60.20;;;;;;5035740;28;20380;-76
2022/06/29 05:33:05;;;;;;;29.20;27.10;;;19.60;60.00;;;;;;5030458;28;20030;-77
2022/06/29 05:35:33;;;;;;;23.77;22.40;;;19.80;58.90;;;;;;5017637;28;20041;-76
2022/06/29 05:38:01;;;;;;;21.63;20.30;;;19.80;58.60;;;;;;5035694;28;20400;-76
2022/06/29 05:40:28;;;;;;;21.77;20.17;;;19.80;58.50;;;;;;5031730;28;20479;-76
2022/06/29 05:42:55;;;;;;;16.83;15.55;;;19.60;58.70;;;;;;5015485;28;20037;-76
2022/06/29 05:45:21;;;;;;;15.55;14.38;;;19.00;60.40;;;;;;5035186;28;20025;-76
2022/06/29 05:47:47;;;;;;;15.73;14.73;;;18.70;61.80;;;;;;5031789;28;20440;-76
2022/06/29 05:50:13;;;;;;;15.07;13.98;;;18.50;62.40;;;;;;5035287;28;20049;-76
2022/06/29 05:52:40;;;;;;;14.13;13.10;;;18.40;63.20;;;;;;5035138;28;20401;-76
2022/06/29 05:55:06;;;;;;;14.27;13.23;;;18.20;64.40;;;;;;5031496;28;20029;-76
2022/06/29 05:57:33;;;;;;;13.55;12.60;;;18.10;64.80;;;;;;5035532;28;20375;-76
2022/06/29 06:00:01;;;;;;;13.35;12.40;;;17.90;65.50;;;;;;5033329;28;20029;-76
2022/06/29 06:02:27;;;;;;;12.85;11.85;;;17.90;66.10;;;;;;5031032;28;20033;-76
2022/06/29 06:04:53;;;;;;;12.70;11.73;;;17.80;66.60;;;;;;5036449;28;20025;-77
2022/06/29 06:07:19;;;;;;;12.00;11.20;;;17.70;66.80;;;;;;5035233;28;20046;-76
2022/06/29 06:09:45;;;;;;;12.48;11.40;;;17.80;67.00;;;;;;5035052;28;20489;-76
2022/06/29 06:12:12;;;;;;;12.55;11.32;;;17.80;66.70;;;;;;5014389;28;20071;-76
2022/06/29 06:14:38;;;;;;;12.13;11.10;;;17.70;66.90;;;;;;5030848;28;20499;-76
2022/06/29 06:17:04;;;;;;;12.13;11.20;;;17.60;67.20;;;;;;5034515;28;20044;-76
2022/06/29 06:19:30;;;;;;;12.65;11.43;;;17.70;67.30;;;;;;5035235;28;20479;-76
2022/06/29 06:21:56;;;;;;;12.23;11.15;;;17.90;66.70;;;;;;5035117;28;20056;-76
2022/06/29 06:24:22;;;;;;;11.85;10.95;;;17.70;67.30;;;;;;5030855;28;20059;-76
2022/06/29 06:26:48;;;;;;;12.63;11.65;;;17.60;68.10;;;;;;5029459;28;20044;-76
2022/06/29 06:29:14;;;;;;;12.77;11.07;;;17.60;68.30;;;;;;5035783;28;20033;-76
2022/06/29 06:31:40;;;;;;;12.20;11.27;;;17.50;68.60;;;;;;5011986;28;20057;-76
2022/06/29 06:34:06;;;;;;;12.82;11.45;;;17.50;68.70;;;;;;5031146;28;20040;-76
2022/06/29 06:36:33;;;;;;;12.40;11.40;;;17.50;69.10;;;;;;5033852;28;20029;-76
2022/06/29 06:38:59;;;;;;;12.45;11.45;;;17.40;69.50;;;;;;5029919;28;20033;-76
2022/06/29 06:41:25;;;;;;;12.98;12.00;;;17.40;69.90;;;;;;5033190;28;20391;-76
2022/06/29 06:43:59;;;;;;;12.43;11.38;;;17.30;70.10;;;;;;5035531;28;20030;-76
2022/06/29 06:46:25;;;;;;;11.90;11.15;;;17.40;70.20;;;;;;5013743;28;20795;-76
2022/06/29 06:48:52;;;;;;;12.20;11.43;;;17.40;70.10;;;;;;5034677;28;20033;-76
2022/06/29 06:51:19;;;;;;;12.50;11.48;;;17.50;70.10;;;;;;5014656;28;20029;-76
2022/06/29 06:53:46;;;;;;;13.00;12.00;;;17.50;70.10;;;;;;5028688;28;20050;-76
2022/06/29 06:56:12;;;;;;;12.38;11.48;;;17.60;69.90;;;;;;5033823;28;20022;-77
2022/06/29 06:58:38;;;;;;;12.82;11.93;;;17.70;69.90;;;;;;5034422;28;20506;-76
2022/06/29 07:01:05;;;;;;;12.57;11.60;;;17.80;69.80;;;;;;5013629;28;20049;-77
2022/06/29 07:03:31;;;;;;;12.35;11.65;;;17.90;69.60;;;;;;5034464;28;20463;-76
2022/06/29 07:06:00;;;;;;;13.25;12.38;;;17.90;69.80;;;;;;5031708;28;20391;-76
2022/06/29 07:08:27;;;;;;;13.68;12.73;;;18.00;69.60;;;;;;5031469;28;20048;-77
2022/06/29 07:10:54;;;;;;;14.43;13.32;;;18.00;69.70;;;;;;5017377;28;20451;-76
2022/06/29 07:13:20;;;;;;;14.35;13.27;;;18.00;69.80;;;;;;5033761;28;20480;-76
2022/06/29 07:15:46;;;;;;;14.10;13.00;;;18.10;69.80;;;;;;5033907;28;20041;-76
2022/06/29 07:18:12;;;;;;;14.35;13.38;;;18.10;70.10;;;;;;5029574;28;20032;-76
2022/06/29 07:20:38;;;;;;;14.10;13.07;;;18.20;69.90;;;;;;5029039;28;20030;-77
2022/06/29 07:23:04;;;;;;;13.82;12.93;;;18.30;69.70;;;;;;5034774;28;20033;-77
2022/06/29 07:25:30;;;;;;;14.98;13.75;;;18.40;69.40;;;;;;5034143;28;20032;-77
2022/06/29 07:27:56;;;;;;;14.98;13.68;;;18.60;69.00;;;;;;5034341;28;20033;-76
2022/06/29 07:30:22;;;;;;;15.75;14.55;;;18.80;68.40;;;;;;5029974;28;20040;-77
2022/06/29 07:32:48;;;;;;;16.38;15.20;;;18.90;67.90;;;;;;5011640;28;20041;-77
2022/06/29 07:35:14;;;;;;;17.05;15.60;;;19.00;67.50;;;;;;5034703;28;20026;-77
2022/06/29 07:37:42;;;;;;;17.30;16.20;;;19.20;66.60;;;;;;5032599;28;20047;-77
2022/06/29 07:40:09;;;;;;;17.17;15.80;;;19.40;67.00;;;;;;5029991;28;20502;-77
2022/06/29 07:42:35;;;;;;;17.17;15.90;;;19.30;66.20;;;;;;5032626;28;20043;-77
2022/06/29 07:45:02;;;;;;;16.83;15.85;;;19.30;66.00;;;;;;5028127;28;20026;-77
2022/06/29 07:47:29;;;;;;;17.45;16.23;;;19.40;65.80;;;;;;5031247;28;20044;-77
2022/06/29 07:49:55;;;;;;;16.65;15.63;;;19.50;65.90;;;;;;5034993;28;20361;-76
2022/06/29 07:52:21;;;;;;;17.15;15.85;;;19.50;65.60;;;;;;5033428;28;20459;-77
2022/06/29 07:54:47;;;;;;;17.20;16.00;;;19.60;65.60;;;;;;5014051;28;20025;-77
2022/06/29 07:57:13;;;;;;;17.40;16.17;;;19.60;65.50;;;;;;5033300;28;20040;-77
2022/06/29 07:59:39;;;;;;;18.33;16.70;;;19.60;65.70;;;;;;5030295;28;20033;-76
2022/06/29 08:02:05;;;;;;;17.63;16.42;;;19.60;65.70;;;;;;5034329;28;20040;-76
2022/06/29 08:04:31;;;;;;;18.17;16.83;;;19.70;65.80;;;;;;5033865;28;20021;-77
2022/06/29 08:06:57;;;;;;;18.35;17.15;;;19.70;65.90;;;;;;5033376;28;20049;-77
2022/06/29 08:09:23;;;;;;;17.45;16.40;;;19.70;65.90;;;;;;5036593;28;20040;-77
2022/06/29 08:11:51;;;;;;;17.90;16.40;;;19.70;65.80;;;;;;5015653;28;20037;-77
2022/06/29 08:14:17;;;;;;;17.42;16.35;;;19.70;65.90;;;;;;5037502;28;20029;-77
2022/06/29 08:16:43;;;;;;;17.70;16.40;;;19.70;65.90;;;;;;5036524;28;20037;-77
2022/06/29 08:19:09;;;;;;;17.58;16.27;;;19.80;65.80;;;;;;5037542;28;20033;-77
2022/06/29 08:21:35;;;;;;;17.92;16.33;;;19.70;66.10;;;;;;5016766;28;20387;-77
2022/06/29 08:24:01;;;;;;;16.63;15.63;;;19.80;65.90;;;;;;5035246;28;20033;-77
2022/06/29 08:26:27;;;;;;;17.17;15.95;;;19.80;66.10;;;;;;5035241;28;20037;-77
2022/06/29 08:28:54;;;;;;;16.65;15.65;;;19.80;65.80;;;;;;5036842;28;20030;-77
2022/06/29 08:31:20;;;;;;;16.58;15.50;;;19.90;65.90;;;;;;5016719;28;20040;-77
2022/06/29 08:33:46;;;;;;;16.38;15.18;;;19.90;65.90;;;;;;5037401;28;20046;-77
2022/06/29 08:36:12;;;;;;;16.85;15.60;;;19.80;66.00;;;;;;5035003;28;20032;-76
2022/06/29 08:38:39;;;;;;;16.60;15.35;;;19.90;66.00;;;;;;5015213;28;20037;-77
2022/06/29 08:41:05;;;;;;;17.52;16.20;;;19.80;66.30;;;;;;5036652;28;20070;-77
2022/06/29 08:43:32;;;;;;;16.23;15.10;;;19.90;66.50;;;;;;5036983;28;20038;-77
2022/06/29 08:45:58;;;;;;;16.85;15.65;;;19.80;66.60;;;;;;5016467;28;20507;-77
2022/06/29 08:48:24;;;;;;;16.92;15.73;;;19.90;66.30;;;;;;5033388;28;20462;-77
2022/06/29 08:50:54;;;;;;;17.05;15.85;;;19.90;66.50;;;;;;5014736;28;20037;-77
2022/06/29 08:53:21;;;;;;;18.33;16.75;;;19.90;66.70;;;;;;5034981;28;20044;-77
2022/06/29 08:55:48;;;;;;;18.23;17.02;;;20.10;66.80;;;;;;5019729;28;20052;-77
2022/06/29 08:58:17;;;;;;;17.42;16.23;;;20.10;66.90;;;;;;5036543;28;20037;-77
2022/06/29 09:00:43;;;;;;;18.58;17.08;;;20.10;66.90;;;;;;5032538;28;20380;-77
2022/06/29 09:03:10;;;;;;;19.95;18.70;;;20.10;66.90;;;;;;5031228;28;20032;-77
2022/06/29 09:05:37;;;;;;;19.50;18.30;;;20.20;67.50;;;;;;5032064;28;20052;-77
2022/06/29 09:08:04;;;;;;;19.33;18.27;;;20.20;67.40;;;;;;5037479;28;20058;-77
2022/06/29 09:10:30;;;;;;;19.63;18.35;;;20.20;68.00;;;;;;5036484;28;20036;-77
2022/06/29 09:12:58;;;;;;;19.98;18.63;;;20.20;68.50;;;;;;5014711;28;20057;-77
2022/06/29 09:15:42;;;;;;;18.85;17.38;;;20.20;68.40;;;;;;5035286;28;20033;-77
2022/06/29 09:18:31;;;;;;;17.88;16.67;;;20.20;69.40;;;;;;5034703;28;20475;-77
2022/06/29 09:21:02;;;;;;;18.48;16.92;;;20.20;69.20;;;;;;5017446;28;20041;-77
2022/06/29 09:23:28;;;;;;;25.95;23.75;;;20.20;69.30;;;;;;5015796;28;20060;-77
2022/06/29 09:25:55;;;;;;;24.23;22.60;;;20.30;69.30;;;;;;5035900;28;20033;-77
2022/06/29 09:28:25;;;;;;;20.95;19.42;;;20.30;70.00;;;;;;5032401;28;20499;-77
2022/06/29 09:30:55;;;;;;;21.20;19.55;;;20.30;69.50;;;;;;5035718;28;20494;-77
2022/06/29 09:33:21;;;;;;;17.90;16.75;;;20.30;69.70;;;;;;5033230;28;20033;-77
2022/06/29 09:36:17;;;;;;;19.10;17.85;;;20.40;68.70;;;;;;5030003;28;20094;-77
2022/06/29 09:38:43;;;;;;;15.68;14.45;;;20.40;69.40;;;;;;5016392;28;20041;-77
2022/06/29 09:41:14;;;;;;;14.73;13.35;;;20.40;68.90;;;;;;5046430;28;20037;-77
2022/06/29 09:43:43;;;;;;;15.25;14.07;;;20.40;69.10;;;;;;5034836;28;20033;-77
2022/06/29 09:46:13;;;;;;;15.23;13.93;;;20.50;69.70;;;;;;5031689;28;20477;-77
2022/06/29 09:48:40;;;;;;;15.63;14.60;;;20.60;68.50;;;;;;5035681;28;20033;-77
2022/06/29 09:54:05;;;;;;;17.50;16.17;;;20.60;68.30;;;;;;5007959;28;20034;-77
2022/06/29 09:56:31;;;;;;;17.77;16.38;;;20.60;68.00;;;;;;5015965;28;20035;-77
2022/06/29 09:58:59;;;;;;;17.45;16.35;;;20.60;68.20;;;;;;5033252;28;20022;-77
2022/06/29 10:04:10;;;;;;;16.50;15.30;;;20.60;68.80;;;;;;5033271;28;20068;-77
2022/06/29 10:06:36;;;;;;;15.40;14.20;;;20.40;68.90;;;;;;5031680;28;20048;-77
2022/06/29 10:09:03;;;;;;;16.35;14.75;;;20.40;69.50;;;;;;5013114;28;20037;-77
2022/06/29 10:14:41;;;;;;;23.90;21.95;;;20.40;70.10;;;;;;5049507;28;20044;-77
2022/06/29 10:17:26;;;;;;;31.95;30.15;;;20.30;71.10;;;;;;5035449;28;20061;-77
2022/06/29 10:20:31;;;;;;;34.90;33.15;;;20.40;72.40;;;;;;5035426;28;20035;-77
2022/06/29 10:22:57;;;;;;;29.13;27.42;;;20.30;71.50;;;;;;5018574;28;20045;-77
2022/06/29 10:25:27;;;;;;;27.38;25.98;;;20.40;72.40;;;;;;5008935;28;20036;-76
2022/06/29 10:28:16;;;;;;;22.70;21.48;;;20.40;73.20;;;;;;5027361;28;20060;-76
2022/06/29 10:30:43;;;;;;;26.17;24.67;;;20.10;75.80;;;;;;5029872;28;20053;-76
2022/06/29 10:33:32;;;;;;;27.83;26.20;;;20.00;74.70;;;;;;5029939;28;20404;-76
2022/06/29 10:36:17;;;;;;;22.50;21.30;;;19.90;77.10;;;;;;5030165;28;20037;-76
2022/06/29 10:38:58;;;;;;;21.58;20.38;;;19.80;78.40;;;;;;5030693;28;20056;-76
2022/06/29 10:44:09;;;;;;;18.73;17.83;;;19.40;79.30;;;;;;5036952;28;19931;-76
2022/06/29 10:46:54;;;;;;;19.25;18.25;;;19.40;78.50;;;;;;5033861;28;20534;-77
2022/06/29 10:49:21;;;;;;;19.77;18.58;;;19.40;78.80;;;;;;5031116;28;20049;-77
2022/06/29 10:51:49;;;;;;;19.80;18.80;;;19.50;77.80;;;;;;5014286;28;20036;-77
2022/06/29 10:54:26;;;;;;;18.10;17.20;;;19.40;77.80;;;;;;5030347;28;20486;-76
2022/06/29 10:56:52;;;;;;;16.58;15.68;;;19.50;78.70;;;;;;5016256;28;20032;-77
2022/06/29 10:59:39;;;;;;;16.40;15.60;;;19.30;79.00;;;;;;5033798;28;20033;-77
2022/06/29 11:02:13;;;;;;;16.65;15.65;;;19.30;78.60;;;;;;5032411;28;20030;-77
2022/06/29 11:04:39;;;;;;;17.67;16.20;;;19.50;79.20;;;;;;5030962;28;20032;-77
2022/06/29 11:12:35;;;;;;;16.77;15.80;;;19.20;78.50;;;;;;5033694;28;20035;-77
2022/06/29 11:17:48;;;;;;;19.45;17.95;;;19.30;79.10;;;;;;5005414;28;20032;-77
2022/06/29 11:20:21;;;;;;;19.48;17.90;;;19.30;78.90;;;;;;5034906;28;20045;-77
2022/06/29 11:22:54;;;;;;;19.15;17.77;;;19.40;78.20;;;;;;5034724;28;20029;-77
2022/06/29 11:25:20;;;;;;;19.65;18.25;;;19.50;77.80;;;;;;5014212;28;20029;-77
2022/06/29 11:27:46;;;;;;;22.73;21.13;;;19.50;77.50;;;;;;5014146;28;20037;-77
2022/06/29 11:30:15;;;;;;;20.40;18.92;;;19.60;77.10;;;;;;5028037;28;20041;-77
2022/06/29 11:32:45;;;;;;;20.33;18.83;;;19.60;77.70;;;;;;5012539;28;20045;-77
2022/06/29 11:35:13;;;;;;;22.13;20.48;;;19.50;77.10;;;;;;5034671;28;20049;-77
2022/06/29 11:37:52;;;;;;;23.10;20.98;;;19.50;77.40;;;;;;5033010;28;20030;-77
2022/06/29 11:40:34;;;;;;;22.75;21.25;;;19.40;78.20;;;;;;5034132;28;20045;-77
2022/06/29 11:43:14;;;;;;;23.92;22.17;;;19.40;77.70;;;;;;5034392;28;20021;-77
2022/06/29 11:45:45;;;;;;;24.27;22.88;;;19.40;77.90;;;;;;5017866;28;20033;-77
2022/06/29 11:48:11;;;;;;;24.02;22.65;;;19.50;77.70;;;;;;5033474;28;20028;-77
2022/06/29 11:50:54;;;;;;;24.00;22.25;;;19.50;78.00;;;;;;5034561;28;20386;-77
2022/06/29 11:53:53;;;;;;;29.58;27.77;;;19.40;78.70;;;;;;5047265;28;20407;-77
2022/06/29 11:56:22;;;;;;;36.47;34.20;;;19.50;78.50;;;;;;5034488;28;20037;-77
2022/06/29 11:58:51;;;;;;;31.63;29.45;;;19.70;77.60;;;;;;5019856;28;20033;-77
2022/06/29 12:01:18;;;;;;;38.63;36.40;;;19.70;77.60;;;;;;5037297;28;20041;-77
2022/06/29 12:03:52;;;;;;;32.15;29.85;;;19.70;78.00;;;;;;5038024;28;20040;-77
2022/06/29 12:06:18;;;;;;;36.72;34.55;;;19.70;77.10;;;;;;5033751;28;20025;-77
2022/06/29 12:08:45;;;;;;;34.88;32.72;;;19.80;76.70;;;;;;4999496;28;20038;-78
2022/06/29 12:11:11;;;;;;;27.73;25.88;;;19.70;76.40;;;;;;5038504;28;20036;-77
2022/06/29 12:13:37;;;;;;;34.40;32.40;;;19.70;77.10;;;;;;5037173;28;20064;-77
2022/06/29 12:16:04;;;;;;;28.55;26.58;;;19.70;76.70;;;;;;5037254;28;20034;-77
2022/06/29 12:18:30;;;;;;;32.03;30.23;;;19.70;76.60;;;;;;5037526;28;20021;-77
2022/06/29 12:20:56;;;;;;;30.80;28.90;;;19.70;76.50;;;;;;5034814;28;20403;-78
2022/06/29 12:23:23;;;;;;;31.35;29.48;;;19.60;76.60;;;;;;5035059;28;20036;-77
2022/06/29 12:25:49;;;;;;;31.73;30.05;;;19.60;77.10;;;;;;5037570;28;20041;-77
2022/06/29 12:28:15;;;;;;;33.10;31.25;;;19.60;77.10;;;;;;5037084;28;20026;-77
2022/06/29 12:30:42;;;;;;;36.63;34.65;;;19.80;76.30;;;;;;5033105;28;20025;-77
2022/06/29 12:33:09;;;;;;;35.80;33.72;;;19.80;76.00;;;;;;5035784;28;20033;-77
2022/06/29 12:35:36;;;;;;;34.17;32.17;;;19.70;76.30;;;;;;5033956;28;20038;-77
2022/06/29 12:38:02;;;;;;;36.38;34.42;;;19.70;76.60;;;;;;5036965;28;20021;-77
2022/06/29 12:40:31;;;;;;;30.60;29.02;;;19.60;76.80;;;;;;5036690;28;20025;-77
2022/06/29 12:42:58;;;;;;;30.98;29.17;;;19.70;76.30;;;;;;5037238;28;20029;-77
2022/06/29 12:45:24;;;;;;;25.85;24.20;;;19.70;76.60;;;;;;5032891;28;20033;-77
2022/06/29 12:47:50;;;;;;;21.60;20.40;;;19.70;76.20;;;;;;5014999;28;20041;-77
2022/06/29 12:50:16;;;;;;;16.48;15.57;;;19.70;76.20;;;;;;5019148;28;20049;-77
2022/06/29 12:52:46;;;;;;;14.88;13.88;;;19.80;76.10;;;;;;5037304;28;20029;-75